Vidsel, Sweden

8:55 PM CEST on July 24, 2016 (GMT +0200)
Vidsel Air Base | | Change Station

Elev 597 ft 65.88 °N, 20.14 °E | Updated 5 minutes ago

Clear
Clear
73 °F
Feels Like 73 °F
N
6
Wind Variable Wind from SE

Today
High -- | Low -- °F
--% Chance of Precip.
Yesterday
High -- | Low -- °F
Precip. -- in
Pressure 30.04 in
Visibility 6.2 miles
Clouds
Dew Point 61 °F
Humidity 65%
Rainfall 0.00 in
Snow Depth Not available.
2:56 AM 10:32 PM
Waning Gibbous, 74% visible
METAR ESPE 241850Z AUTO 13005KT 9999 NCD 23/16 Q1017
Pressure 30.04 in
Visibility 6.2 miles
Clouds
Dew Point 61 °F
Humidity 65%
Rainfall 0.00 in
Snow Depth Not available.
2:56 AM 10:32 PM
Waning Gibbous, 74% visible
METAR ESPE 241850Z AUTO 13005KT 9999 NCD 23/16 Q1017

10-Day Weather Forecast

×

Almanac

Astronomy

Jul. 24, 2016 Rise Set
Actual Time
Civil Twilight
Nautical Twilight
Astronomical Twilight
Moon
Length of Visible Light
Length of Day
Tomorrow will be .
, % of the Moon is Illuminated

Today's Extremes

Country Highs Country Lows

Community

WunderPhotos

Upload Photos

1,927,157 photos uploaded!

WunderBlog® & News

Nearby

Air Quality

  Air Quality AQ Index Pollutant
Not available.

Snow Depth

Station Depth Elevation

Earthquake Activity

City Distance Mag. Time & Date
Minimum magnitude displayed is 2.5.

Coastal Water Temperatures

Place Temperature

Stations

Nearby Weather Stations

Station Location Temp. Windchill Dew Point Humidity Wind Precip. Elev Updated Type